General Aviation Weather

Text Reports

Enter one or more of the following location identifiers separated by a space:

Zip Code, Four-Character ICAO or Three-Character IATA airport codes.

METAR - Aviation Routine Weather Report
KLBB - Lubbock, Texas
Updated at 6:53 AM GMT on January 28, 2015 (12:53 AM CST):
METAR KLBB 280653Z 25008KT 10SM CLR 08/02 A3012 RMK AO2 SLP174 T00830017
TAF - Terminal Area Forecast
KLBB - Lubbock, Texas
Updated at 6:53 AM GMT on January 28, 2015 (12:53 AM CST):
No TAF is currently available for this location.
Decoded:
No decoded TAF is available.
PIREP - Pilot Weather Report
KLBB - Lubbock, Texas
Updated at 6:53 AM GMT on January 28, 2015 (12:53 AM CST):
No PIREP is currently available for this location.
AIRMET - Airmens Meteorological Information
KLBB - Lubbock, Texas
Updated at 6:53 AM GMT on January 28, 2015 (12:53 AM CST):
No AIRMET is currently available for this location.
SIGMET - Significant Meteorological Information
KLBB - Lubbock, Texas
Updated at 6:53 AM GMT on January 28, 2015 (12:53 AM CST):
No SIGMET is currently available for this location.
NOTAM - Notice to Airmen
KLBB - Lubbock, Texas
Updated at 6:53 AM GMT on January 28, 2015 (12:53 AM CST):
No NOTAM is currently available for this location.
Forecast Area
KLBB - Lubbock, Texas
Updated at 6:53 AM GMT on January 28, 2015 (12:53 AM CST):
No NOTAM is currently available for this location.
Aviation Weather Maps